createdAt,value
2022-11-28T00:00:58.544Z,12.77
2022-11-28T00:03:00.708Z,13.70
2022-11-28T00:05:02.592Z,13.55
2022-11-28T00:07:04.483Z,14.05
2022-11-28T00:09:07.389Z,12.98
2022-11-28T00:11:12.071Z,13.07
2022-11-28T00:13:14.016Z,14.13
2022-11-28T00:15:15.856Z,12.45
2022-11-28T00:17:17.574Z,13.25
2022-11-28T00:19:19.353Z,13.90
2022-11-28T00:21:21.824Z,13.07
2022-11-28T00:23:23.607Z,13.35
2022-11-28T00:25:25.474Z,13.55
2022-11-28T00:27:27.218Z,13.52
2022-11-28T00:29:29.018Z,14.00
2022-11-28T00:31:33.744Z,13.95
2022-11-28T00:33:35.521Z,13.57
2022-11-28T00:35:37.262Z,13.55
2022-11-28T00:37:38.994Z,13.35
2022-11-28T00:39:40.709Z,13.40
2022-11-28T00:41:43.266Z,12.83
2022-11-28T00:45:47.339Z,12.60
2022-11-28T00:47:49.208Z,12.95
2022-11-28T00:49:50.938Z,13.35
2022-11-28T00:51:52.736Z,13.10
2022-11-28T00:53:55.748Z,13.07
2022-11-28T00:55:57.444Z,13.15
2022-11-28T00:57:59.162Z,12.57
2022-11-28T01:00:00.909Z,13.60
2022-11-28T01:02:02.764Z,13.13
2022-11-28T01:04:07.360Z,12.73
2022-11-28T01:06:10.164Z,12.98
2022-11-28T01:08:11.940Z,13.82
2022-11-28T01:10:13.864Z,13.93
2022-11-28T01:12:15.792Z,13.85
2022-11-28T01:14:20.535Z,14.02
2022-11-28T01:16:22.652Z,13.15
2022-11-28T01:18:24.462Z,12.90
2022-11-28T01:20:26.172Z,13.57
2022-11-28T01:22:28.022Z,12.73
2022-11-28T01:24:29.709Z,13.60
2022-11-28T01:26:32.007Z,13.03
2022-11-28T01:28:34.331Z,13.35
2022-11-28T01:30:36.141Z,12.88
2022-11-28T01:32:37.947Z,13.57
2022-11-28T01:34:39.900Z,14.23
2022-11-28T01:36:41.870Z,13.65
2022-11-28T01:38:44.131Z,12.13
2022-11-28T01:40:46.882Z,13.80
2022-11-28T01:42:48.598Z,12.98
2022-11-28T01:44:50.259Z,13.23
2022-11-28T01:46:52.071Z,13.00
2022-11-28T01:48:55.601Z,12.95
2022-11-28T01:51:00.978Z,13.15
2022-11-28T01:53:08.225Z,13.20
2022-11-28T01:55:12.675Z,13.18
2022-11-28T01:57:18.386Z,12.45
2022-11-28T01:59:23.689Z,13.10
2022-11-28T02:01:26.252Z,13.23
2022-11-28T02:05:33.540Z,13.00
2022-11-28T02:07:37.116Z,14.25
2022-11-28T02:09:38.917Z,13.93
2022-11-28T02:11:52.507Z,12.88
2022-11-28T02:14:20.022Z,13.57
2022-11-28T02:16:33.744Z,14.25
2022-11-28T02:18:59.457Z,13.15
2022-11-28T02:21:26.318Z,12.88
2022-11-28T02:23:55.800Z,14.50
2022-11-28T02:26:34.758Z,13.13
2022-11-28T02:28:47.001Z,13.48
2022-11-28T02:30:48.659Z,14.48
2022-11-28T02:32:59.561Z,14.30
2022-11-28T02:35:29.055Z,13.90
2022-11-28T02:37:54.067Z,14.63
2022-11-28T02:40:16.032Z,13.60
2022-11-28T02:42:28.562Z,12.82
2022-11-28T02:44:30.290Z,13.35
2022-11-28T02:46:37.955Z,14.60
2022-11-28T02:48:53.222Z,13.68
2022-11-28T02:51:16.659Z,14.23
2022-11-28T02:53:22.879Z,14.73
2022-11-28T02:55:24.865Z,14.65
2022-11-28T02:57:42.696Z,14.38
2022-11-28T02:59:48.225Z,14.18
2022-11-28T03:01:49.978Z,13.75
2022-11-28T03:04:02.890Z,13.82
2022-11-28T03:06:10.816Z,13.88
2022-11-28T03:08:12.512Z,13.75
2022-11-28T03:10:51.845Z,14.77
2022-11-28T03:13:00.200Z,14.23
2022-11-28T03:15:08.782Z,14.80
2022-11-28T03:17:29.120Z,14.00
2022-11-28T03:19:42.670Z,14.80
2022-11-28T03:22:00.632Z,14.10
2022-11-28T03:24:24.892Z,14.40
2022-11-28T03:26:38.088Z,14.45
2022-11-28T03:28:58.016Z,15.50
2022-11-28T03:31:02.611Z,15.23
2022-11-28T03:33:05.718Z,14.38
2022-11-28T03:35:15.792Z,15.00
2022-11-28T03:37:24.014Z,15.25
2022-11-28T03:39:30.835Z,13.35
2022-11-28T03:41:45.746Z,15.18
2022-11-28T03:43:52.302Z,14.52
2022-11-28T03:45:58.307Z,15.18
2022-11-28T03:48:08.281Z,14.07
2022-11-28T03:50:17.513Z,14.60
2022-11-28T03:52:27.377Z,15.32
2022-11-28T03:54:46.576Z,14.82
2022-11-28T03:57:15.226Z,14.38
2022-11-28T03:59:22.412Z,14.05
2022-11-28T04:01:36.679Z,14.77
2022-11-28T04:03:38.434Z,14.52
2022-11-28T04:05:55.386Z,15.00
2022-11-28T04:08:18.893Z,15.68
2022-11-28T04:10:44.702Z,14.27
2022-11-28T04:12:56.980Z,16.00
2022-11-28T04:15:08.434Z,15.50
2022-11-28T04:17:19.683Z,16.40
2022-11-28T04:19:31.049Z,15.13
2022-11-28T04:21:43.635Z,15.07
2022-11-28T04:23:48.005Z,16.40
2022-11-28T04:25:58.129Z,15.13
2022-11-28T04:28:07.376Z,16.52
2022-11-28T04:30:11.144Z,15.73
2022-11-28T04:32:15.808Z,15.00
2022-11-28T04:34:20.378Z,14.88
2022-11-28T04:36:24.587Z,14.95
2022-11-28T04:38:29.715Z,14.75
2022-11-28T04:40:37.144Z,14.43
2022-11-28T04:42:53.339Z,14.98
2022-11-28T04:45:11.027Z,15.35
2022-11-28T04:47:12.960Z,15.50
2022-11-28T04:49:15.090Z,15.23
2022-11-28T04:51:21.412Z,16.02
2022-11-28T04:54:04.652Z,14.50
2022-11-28T04:56:18.675Z,15.55
2022-11-28T04:58:31.397Z,14.52
2022-11-28T05:00:36.459Z,15.35
2022-11-28T05:02:40.327Z,14.48
2022-11-28T05:04:44.475Z,15.88
2022-11-28T05:06:47.954Z,15.18
2022-11-28T05:08:49.842Z,14.43
2022-11-28T05:10:51.541Z,15.82
2022-11-28T05:12:53.347Z,15.75
2022-11-28T05:14:55.093Z,15.88
2022-11-28T05:16:56.794Z,14.13
2022-11-28T05:18:58.500Z,14.85
2022-11-28T05:21:01.469Z,13.93
2022-11-28T05:23:03.250Z,15.43
2022-11-28T05:25:05.938Z,15.05
2022-11-28T05:27:07.899Z,14.48
2022-11-28T05:29:09.698Z,14.50
2022-11-28T05:31:12.344Z,14.13
2022-11-28T05:35:15.900Z,14.55
2022-11-28T05:37:17.735Z,15.27
2022-11-28T05:39:19.491Z,14.65
2022-11-28T05:41:26.422Z,14.95
2022-11-28T05:43:28.558Z,14.85
2022-11-28T05:45:30.795Z,15.57
2022-11-28T05:47:33.465Z,15.82
2022-11-28T05:49:35.465Z,15.18
2022-11-28T05:51:37.216Z,15.75
2022-11-28T05:53:38.997Z,16.20
2022-11-28T05:55:41.257Z,15.77
2022-11-28T05:57:42.965Z,15.55
2022-11-28T05:59:45.182Z,15.03
2022-11-28T06:01:47.121Z,15.73
2022-11-28T06:03:48.968Z,15.05
2022-11-28T06:05:50.766Z,15.60
2022-11-28T06:07:52.642Z,15.00
2022-11-28T06:09:54.457Z,14.30
2022-11-28T06:11:56.169Z,14.38
2022-11-28T06:13:58.106Z,13.80
2022-11-28T06:15:59.856Z,14.00
2022-11-28T06:18:01.558Z,13.82
2022-11-28T06:20:04.931Z,14.50
2022-11-28T06:22:06.758Z,13.82
2022-11-28T06:24:10.710Z,15.32
2022-11-28T06:26:16.055Z,14.77
2022-11-28T06:28:17.794Z,14.65
2022-11-28T06:30:19.575Z,14.73
2022-11-28T06:32:22.283Z,14.20
2022-11-28T06:34:24.447Z,14.30
2022-11-28T06:36:26.875Z,15.05
2022-11-28T06:38:29.125Z,14.38
2022-11-28T06:40:31.006Z,13.07
2022-11-28T06:42:34.432Z,13.90
2022-11-28T06:44:36.198Z,13.55
2022-11-28T06:46:38.084Z,12.75
2022-11-28T06:48:39.855Z,14.60
2022-11-28T06:50:41.760Z,13.50
2022-11-28T06:52:43.761Z,14.90
2022-11-28T06:54:45.574Z,15.35
2022-11-28T06:56:47.338Z,15.57
2022-11-28T06:58:55.952Z,14.75
2022-11-28T07:00:57.908Z,15.10
2022-11-28T07:02:59.700Z,15.38
2022-11-28T07:05:01.390Z,14.70
2022-11-28T07:07:03.625Z,15.70
2022-11-28T07:09:05.360Z,15.45
2022-11-28T07:11:11.399Z,15.73
2022-11-28T07:13:13.165Z,14.65
2022-11-28T07:15:15.039Z,14.63
2022-11-28T07:17:17.205Z,16.00
2022-11-28T07:19:23.004Z,15.23
2022-11-28T07:21:25.898Z,15.38
2022-11-28T07:23:27.698Z,14.25
2022-11-28T07:25:29.397Z,14.30
2022-11-28T07:27:31.144Z,14.30
2022-11-28T07:29:36.573Z,14.67
2022-11-28T07:31:38.301Z,14.95
2022-11-28T07:33:41.753Z,13.40
2022-11-28T07:35:43.503Z,14.25
2022-11-28T07:37:45.328Z,14.33
2022-11-28T07:39:47.537Z,13.98
2022-11-28T07:41:49.706Z,15.30
2022-11-28T07:43:55.020Z,15.05
2022-11-28T07:46:01.099Z,14.27
2022-11-28T07:48:03.435Z,14.95
2022-11-28T07:50:06.003Z,13.32
2022-11-28T07:54:09.815Z,13.20
2022-11-28T07:56:15.274Z,13.60
2022-11-28T07:58:17.012Z,15.25
2022-11-28T08:00:19.416Z,14.07
2022-11-28T08:02:21.174Z,15.45
2022-11-28T08:04:23.154Z,14.57
2022-11-28T08:06:28.874Z,14.10
2022-11-28T08:08:30.858Z,14.90
2022-11-28T08:10:32.569Z,14.98
2022-11-28T08:12:34.317Z,14.70
2022-11-28T08:14:36.070Z,13.52
2022-11-28T08:16:41.188Z,14.70
2022-11-28T08:18:43.464Z,13.50
2022-11-28T08:20:45.175Z,12.93
2022-11-28T08:22:47.319Z,14.10
2022-11-28T08:24:49.081Z,13.57
2022-11-28T08:26:50.789Z,14.90
2022-11-28T08:28:54.174Z,13.60
2022-11-28T08:30:56.277Z,14.55
2022-11-28T08:32:58.395Z,15.63
2022-11-28T08:35:00.187Z,14.98
2022-11-28T08:37:02.254Z,15.02
2022-11-28T08:41:26.963Z,14.20
2022-11-28T08:43:28.706Z,14.85
2022-11-28T08:45:30.449Z,14.00
2022-11-28T08:47:32.404Z,13.67
2022-11-28T08:49:37.139Z,14.25
2022-11-28T08:51:38.949Z,13.07
2022-11-28T08:53:43.986Z,14.23
2022-11-28T08:55:48.129Z,12.98
2022-11-28T08:57:49.863Z,13.32
2022-11-28T08:59:51.636Z,14.03
2022-11-28T09:01:54.261Z,12.85
2022-11-28T09:03:56.903Z,12.60
2022-11-28T09:08:10.212Z,12.60
2022-11-28T09:10:13.386Z,12.60
2022-11-28T09:12:15.370Z,12.53
2022-11-28T09:14:17.083Z,13.20
2022-11-28T09:16:19.050Z,12.67
2022-11-28T09:18:20.899Z,12.85
2022-11-28T09:20:22.644Z,13.17
2022-11-28T09:22:24.382Z,13.53
2022-11-28T09:24:26.172Z,13.33
2022-11-28T09:26:28.819Z,13.32
2022-11-28T09:30:33.285Z,14.23
2022-11-28T09:32:36.031Z,13.75
2022-11-28T09:34:37.986Z,13.52
2022-11-28T09:36:39.921Z,13.63
2022-11-28T09:38:41.949Z,12.43
2022-11-28T09:40:44.712Z,12.13
2022-11-28T09:42:47.014Z,12.77
2022-11-28T09:44:52.977Z,13.00
2022-11-28T09:46:59.238Z,12.00
2022-11-28T09:49:07.119Z,13.05
2022-11-28T09:51:28.199Z,13.27
2022-11-28T09:53:50.726Z,13.15
2022-11-28T09:56:11.988Z,13.27
2022-11-28T09:58:39.260Z,13.00
2022-11-28T10:01:23.757Z,13.60
2022-11-28T10:03:31.729Z,13.15
2022-11-28T10:06:07.310Z,13.15
2022-11-28T10:08:27.296Z,12.90
2022-11-28T10:10:55.195Z,12.88
2022-11-28T10:12:59.653Z,12.52
2022-11-28T10:15:26.000Z,12.65
2022-11-28T10:17:45.742Z,12.63
2022-11-28T10:20:12.134Z,12.13
2022-11-28T10:22:22.267Z,13.45
2022-11-28T10:24:39.471Z,13.23
2022-11-28T10:26:46.170Z,12.88
2022-11-28T10:28:51.728Z,11.70
2022-11-28T10:31:12.406Z,12.70
2022-11-28T10:33:36.835Z,12.60
2022-11-28T10:36:02.128Z,11.70
2022-11-28T10:38:11.440Z,12.60
2022-11-28T10:40:38.517Z,11.63
2022-11-28T10:42:48.573Z,11.63
2022-11-28T10:45:05.341Z,11.32
2022-11-28T10:47:15.673Z,12.20
2022-11-28T10:49:39.495Z,11.05
2022-11-28T10:51:56.153Z,11.05
2022-11-28T10:54:10.758Z,11.35
2022-11-28T10:56:18.308Z,11.70
2022-11-28T10:58:30.246Z,11.73
2022-11-28T11:00:33.018Z,11.10
2022-11-28T11:02:54.901Z,11.18
2022-11-28T11:04:56.875Z,9.73
2022-11-28T11:07:29.740Z,10.43
2022-11-28T11:09:31.806Z,10.70
2022-11-28T11:11:37.120Z,11.93
2022-11-28T11:14:00.320Z,11.57
2022-11-28T11:18:35.198Z,10.98
2022-11-28T11:20:40.131Z,11.80
2022-11-28T11:22:54.985Z,11.80
2022-11-28T11:25:17.393Z,10.73
2022-11-28T11:27:21.872Z,10.88
2022-11-28T11:29:35.619Z,10.45
2022-11-28T11:31:44.781Z,10.65
2022-11-28T11:33:47.369Z,11.00
2022-11-28T11:35:49.556Z,11.30
2022-11-28T11:37:51.797Z,11.77
2022-11-28T11:39:58.297Z,11.00
2022-11-28T11:42:00.028Z,10.73
2022-11-28T11:44:36.856Z,9.43
2022-11-28T11:46:51.977Z,10.18
2022-11-28T11:48:53.836Z,9.25
2022-11-28T11:50:55.530Z,9.20
2022-11-28T11:53:15.329Z,9.25
2022-11-28T11:55:17.605Z,8.70
2022-11-28T11:57:37.430Z,8.95
2022-11-28T12:00:02.260Z,9.32
2022-11-28T12:02:19.554Z,8.90
2022-11-28T12:04:45.042Z,9.13
2022-11-28T12:06:52.419Z,9.23
2022-11-28T12:09:14.714Z,9.10
2022-11-28T12:11:32.007Z,8.43
2022-11-28T12:13:34.157Z,9.40
2022-11-28T12:16:03.320Z,9.15
2022-11-28T12:18:40.662Z,9.60
2022-11-28T12:20:53.383Z,9.57
2022-11-28T12:23:24.343Z,8.70
2022-11-28T12:25:28.280Z,9.90
2022-11-28T12:27:54.084Z,9.20
2022-11-28T12:30:38.058Z,9.00
2022-11-28T12:33:04.010Z,8.63
2022-11-28T12:35:30.462Z,7.53
2022-11-28T12:40:55.071Z,8.88
2022-11-28T12:43:47.750Z,8.23
2022-11-28T12:46:02.646Z,8.20
2022-11-28T12:48:04.359Z,7.60
2022-11-28T12:50:20.980Z,7.78
2022-11-28T12:52:57.426Z,8.10
2022-11-28T12:55:17.304Z,8.10
2022-11-28T12:57:27.651Z,8.27
2022-11-28T12:59:32.213Z,8.07
2022-11-28T13:01:53.021Z,8.65
2022-11-28T13:04:12.738Z,8.00
2022-11-28T13:06:32.566Z,8.50
2022-11-28T13:08:58.553Z,8.40
2022-11-28T13:11:26.495Z,7.82
2022-11-28T13:13:50.654Z,7.95
2022-11-28T13:16:23.586Z,7.40
2022-11-28T13:18:48.911Z,8.13
2022-11-28T13:21:14.112Z,7.70
2022-11-28T13:23:28.621Z,8.07
2022-11-28T13:25:32.920Z,7.20
2022-11-28T13:27:43.445Z,7.97
2022-11-28T13:30:16.898Z,7.13
2022-11-28T13:32:37.606Z,8.02
2022-11-28T13:34:40.077Z,8.38
2022-11-28T13:39:25.963Z,8.48
2022-11-28T13:42:09.707Z,8.38
2022-11-28T13:44:09.758Z,8.13
2022-11-28T13:46:11.836Z,8.48
2022-11-28T13:51:19.297Z,7.70
2022-11-28T13:53:24.975Z,7.70
2022-11-28T13:55:47.627Z,6.65
2022-11-28T13:57:49.671Z,6.68
2022-11-28T14:00:04.819Z,6.20
2022-11-28T14:02:22.597Z,6.38
2022-11-28T14:04:25.104Z,6.15
2022-11-28T14:06:30.938Z,6.53
2022-11-28T14:08:39.245Z,6.15
2022-11-28T14:10:58.467Z,6.10
2022-11-28T14:13:35.082Z,5.35
2022-11-28T14:15:45.508Z,5.57
2022-11-28T14:18:54.499Z,5.75
2022-11-28T14:23:10.966Z,5.82
2022-11-28T14:25:24.129Z,6.50
2022-11-28T14:27:30.654Z,6.28
2022-11-28T14:29:41.120Z,6.07
2022-11-28T14:32:06.610Z,6.63
2022-11-28T14:34:48.258Z,6.10
2022-11-28T14:37:10.183Z,6.75
2022-11-28T14:39:33.007Z,7.45
2022-11-28T14:42:06.772Z,7.00
2022-11-28T14:44:46.204Z,7.25
2022-11-28T14:47:35.184Z,8.13
2022-11-28T14:49:36.932Z,8.18
2022-11-28T14:51:48.025Z,7.55
2022-11-28T14:53:50.194Z,7.95
2022-11-28T14:55:52.077Z,8.02
2022-11-28T14:58:03.174Z,7.13
2022-11-28T15:00:13.334Z,7.88
2022-11-28T15:02:34.943Z,8.05
2022-11-28T15:04:39.747Z,8.32
2022-11-28T15:06:42.152Z,8.88
2022-11-28T15:09:08.670Z,8.43
2022-11-28T15:11:58.740Z,8.88
2022-11-28T15:14:03.082Z,8.32
2022-11-28T15:16:09.847Z,8.60
2022-11-28T15:18:12.182Z,9.57
2022-11-28T15:20:28.403Z,10.32
2022-11-28T15:22:30.890Z,10.20
2022-11-28T15:24:37.683Z,9.95
2022-11-28T15:26:39.549Z,10.88
2022-11-28T15:28:41.979Z,11.50
2022-11-28T15:30:49.997Z,11.23
2022-11-28T15:32:59.319Z,11.15
2022-11-28T15:35:09.214Z,11.38
2022-11-28T15:37:19.264Z,12.45
2022-11-28T15:39:41.702Z,12.77
2022-11-28T15:41:46.072Z,12.27
2022-11-28T15:43:47.827Z,12.43
2022-11-28T15:46:01.519Z,12.13
2022-11-28T15:48:04.727Z,12.25
2022-11-28T15:50:20.047Z,13.27
2022-11-28T15:52:21.733Z,12.77
2022-11-28T15:54:41.782Z,12.90
2022-11-28T15:56:57.273Z,13.88
2022-11-28T15:58:59.036Z,14.30
2022-11-28T16:01:19.767Z,14.47
2022-11-28T16:03:26.210Z,13.68
2022-11-28T16:05:28.190Z,13.07
2022-11-28T16:07:30.176Z,12.75
2022-11-28T16:09:35.299Z,12.82
2022-11-28T16:11:37.079Z,13.10
2022-11-28T16:13:40.012Z,13.33
2022-11-28T16:15:49.934Z,13.52
2022-11-28T16:17:55.603Z,14.68
2022-11-28T16:19:58.124Z,13.98
2022-11-28T16:22:09.863Z,13.75
2022-11-28T16:24:48.249Z,13.05
2022-11-28T16:27:33.331Z,12.93
2022-11-28T16:29:36.531Z,14.50
2022-11-28T16:31:38.612Z,13.77
2022-11-28T16:33:44.911Z,13.80
2022-11-28T16:35:46.637Z,14.73
2022-11-28T16:37:48.418Z,13.60
2022-11-28T16:40:14.519Z,13.17
2022-11-28T16:42:17.561Z,14.38
2022-11-28T16:44:23.898Z,14.05
2022-11-28T16:46:30.270Z,13.43
2022-11-28T16:48:38.016Z,13.65
2022-11-28T16:51:10.111Z,15.60
2022-11-28T16:53:52.134Z,15.93
2022-11-28T16:55:53.843Z,16.17
2022-11-28T16:58:07.122Z,15.88
2022-11-28T17:00:09.501Z,14.70
2022-11-28T17:02:38.575Z,13.93
2022-11-28T17:04:40.542Z,12.90
2022-11-28T17:06:42.549Z,13.98
2022-11-28T17:08:44.542Z,16.67
2022-11-28T17:10:46.300Z,15.15
2022-11-28T17:12:48.092Z,17.50
2022-11-28T17:14:50.028Z,17.60
2022-11-28T17:16:51.935Z,17.88
2022-11-28T17:18:54.301Z,19.27
2022-11-28T17:20:56.000Z,17.75
2022-11-28T17:22:59.130Z,17.13
2022-11-28T17:25:01.763Z,17.30
2022-11-28T17:29:05.225Z,12.65
2022-11-28T17:31:07.474Z,12.20
2022-11-28T17:33:15.978Z,12.75
2022-11-28T17:35:22.627Z,11.10
2022-11-28T17:37:24.365Z,10.95
2022-11-28T17:39:27.441Z,11.37
2022-11-28T17:41:29.154Z,11.15
2022-11-28T17:43:35.972Z,11.93
2022-11-28T17:45:40.550Z,11.23
2022-11-28T17:47:42.348Z,11.93
2022-11-28T17:49:46.405Z,11.10
2022-11-28T17:51:49.070Z,12.25
2022-11-28T17:53:50.939Z,11.45
2022-11-28T17:55:59.127Z,11.48
2022-11-28T17:58:00.864Z,12.57
2022-11-28T18:00:05.172Z,13.73
2022-11-28T18:02:07.448Z,13.18
2022-11-28T18:04:09.253Z,12.95
2022-11-28T18:06:18.023Z,13.67
2022-11-28T18:08:22.282Z,18.13
2022-11-28T18:10:24.291Z,16.35
2022-11-28T18:12:26.010Z,14.23
2022-11-28T18:14:27.707Z,13.23
2022-11-28T18:16:30.809Z,11.95
2022-11-28T18:18:33.155Z,11.63
2022-11-28T18:20:36.798Z,10.60
2022-11-28T18:22:38.656Z,11.43
2022-11-28T18:24:40.370Z,10.23
2022-11-28T18:26:42.117Z,10.07
2022-11-28T18:28:43.901Z,10.50
2022-11-28T18:30:47.157Z,10.00
2022-11-28T18:32:48.924Z,9.35
2022-11-28T18:34:50.693Z,13.17
2022-11-28T18:36:58.509Z,12.40
2022-11-28T18:39:03.668Z,13.15
2022-11-28T18:41:07.008Z,15.60
2022-11-28T18:43:08.942Z,15.63
2022-11-28T18:45:11.755Z,14.85
2022-11-28T18:47:13.508Z,13.60
2022-11-28T18:49:16.580Z,15.13
2022-11-28T18:51:21.151Z,13.23
2022-11-28T18:53:22.900Z,12.57
2022-11-28T18:55:24.731Z,13.53
2022-11-28T18:57:31.101Z,13.20
2022-11-28T18:59:32.837Z,16.92
2022-11-28T19:01:35.471Z,17.23
2022-11-28T19:05:42.293Z,16.85
2022-11-28T19:07:44.040Z,17.45
2022-11-28T19:09:46.534Z,19.57
2022-11-28T19:13:53.606Z,22.77
2022-11-28T19:15:55.398Z,21.50
2022-11-28T19:17:57.102Z,18.87
2022-11-28T19:19:58.846Z,17.17
2022-11-28T19:22:00.627Z,15.15
2022-11-28T19:24:03.188Z,13.27
2022-11-28T19:26:08.315Z,11.98
2022-11-28T19:28:10.115Z,11.18
2022-11-28T19:30:13.280Z,10.70
2022-11-28T19:32:16.919Z,10.95
2022-11-28T19:34:19.271Z,10.77
2022-11-28T19:36:21.156Z,10.82
2022-11-28T19:38:22.870Z,10.70
2022-11-28T19:40:24.672Z,11.40
2022-11-28T19:42:26.443Z,11.43
2022-11-28T19:44:29.391Z,12.03
2022-11-28T19:46:35.405Z,11.98
2022-11-28T19:48:39.569Z,13.75
2022-11-28T19:50:49.001Z,13.98
2022-11-28T19:52:50.777Z,15.50
2022-11-28T19:54:52.658Z,15.33
2022-11-28T19:56:54.485Z,13.48
2022-11-28T19:58:56.171Z,12.13
2022-11-28T20:01:15.855Z,12.90
2022-11-28T20:03:18.330Z,12.82
2022-11-28T20:05:20.031Z,12.60
2022-11-28T20:07:21.826Z,13.63
2022-11-28T20:09:23.601Z,13.32
2022-11-28T20:11:31.698Z,13.20
2022-11-28T20:13:33.774Z,11.98
2022-11-28T20:15:38.594Z,14.05
2022-11-28T20:17:40.345Z,13.35
2022-11-28T20:19:42.371Z,13.37
2022-11-28T20:21:44.357Z,13.05
2022-11-28T20:23:51.500Z,13.63
2022-11-28T20:25:53.566Z,13.13
2022-11-28T20:27:55.360Z,13.60
2022-11-28T20:29:57.259Z,13.67
2022-11-28T20:31:59.100Z,13.73
2022-11-28T20:34:01.533Z,14.98
2022-11-28T20:36:08.045Z,15.32
2022-11-28T20:38:09.773Z,13.55
2022-11-28T20:40:12.009Z,13.55
2022-11-28T20:42:13.735Z,14.15
2022-11-28T20:44:15.553Z,13.77
2022-11-28T20:46:22.599Z,14.53
2022-11-28T20:48:24.398Z,16.10
2022-11-28T20:50:26.081Z,15.00
2022-11-28T20:52:27.823Z,15.90
2022-11-28T20:54:29.646Z,16.20
2022-11-28T20:56:46.287Z,15.30
2022-11-28T20:58:58.272Z,16.17
2022-11-28T21:01:00.194Z,16.08
2022-11-28T21:03:01.924Z,16.20
2022-11-28T21:05:03.735Z,16.02
2022-11-28T21:07:05.431Z,16.27
2022-11-28T21:09:07.697Z,15.70
2022-11-28T21:11:25.587Z,16.23
2022-11-28T21:13:35.534Z,15.82
2022-11-28T21:15:42.422Z,16.00
2022-11-28T21:17:44.660Z,15.05
2022-11-28T21:19:46.580Z,16.20
2022-11-28T21:21:49.446Z,15.60
2022-11-28T21:23:51.254Z,15.23
2022-11-28T21:25:53.111Z,16.50
2022-11-28T21:27:54.871Z,15.70
2022-11-28T21:29:56.687Z,15.47
2022-11-28T21:31:58.474Z,15.63
2022-11-28T21:34:00.731Z,15.03
2022-11-28T21:36:03.768Z,15.80
2022-11-28T21:38:06.890Z,16.65
2022-11-28T21:40:09.231Z,16.98
2022-11-28T21:42:12.295Z,16.25
2022-11-28T21:44:16.839Z,17.30
2022-11-28T21:46:18.637Z,16.65
2022-11-28T21:48:20.353Z,16.93
2022-11-28T21:50:22.157Z,18.07
2022-11-28T21:52:24.626Z,16.40
2022-11-28T21:54:26.333Z,18.50
2022-11-28T21:56:28.237Z,17.40
2022-11-28T21:58:30.748Z,17.25
2022-11-28T22:00:52.744Z,16.20
2022-11-28T22:02:58.193Z,16.27
2022-11-28T22:05:05.236Z,17.27
2022-11-28T22:07:07.964Z,16.35
2022-11-28T22:11:13.284Z,15.93
2022-11-28T22:13:15.169Z,14.80
2022-11-28T22:15:17.256Z,15.13
2022-11-28T22:17:18.997Z,14.85
2022-11-28T22:19:20.703Z,17.03
2022-11-28T22:21:50.671Z,15.57
2022-11-28T22:23:44.675Z,14.85
2022-11-28T22:25:55.184Z,15.27
2022-11-28T22:27:56.947Z,16.02
2022-11-28T22:29:58.672Z,15.00
2022-11-28T22:32:00.474Z,15.30
2022-11-28T22:34:02.209Z,15.07
2022-11-28T22:36:05.158Z,16.15
2022-11-28T22:38:06.877Z,15.85
2022-11-28T22:40:09.068Z,15.10
2022-11-28T22:42:10.822Z,15.50
2022-11-28T22:44:12.609Z,14.07
2022-11-28T22:46:15.634Z,13.75
2022-11-28T22:48:17.417Z,14.30
2022-11-28T22:50:19.291Z,14.30
2022-11-28T22:52:21.015Z,14.48
2022-11-28T22:54:22.751Z,14.83
2022-11-28T22:56:25.099Z,15.67
2022-11-28T22:58:26.834Z,16.67
2022-11-28T23:00:28.524Z,16.38
2022-11-28T23:02:30.376Z,15.85
2022-11-28T23:04:32.233Z,16.77
2022-11-28T23:06:34.706Z,16.37
2022-11-28T23:08:36.845Z,16.63
2022-11-28T23:10:38.614Z,17.02
2022-11-28T23:12:41.944Z,15.80
2022-11-28T23:14:43.985Z,15.40
2022-11-28T23:16:46.029Z,15.15
2022-11-28T23:18:49.347Z,14.05
2022-11-28T23:20:51.076Z,13.32
2022-11-28T23:22:52.875Z,13.90
2022-11-28T23:24:54.577Z,13.67
2022-11-28T23:26:56.294Z,13.90
2022-11-28T23:29:03.545Z,13.27
2022-11-28T23:31:12.466Z,14.73
2022-11-28T23:33:14.190Z,14.43
2022-11-28T23:35:15.980Z,13.95
2022-11-28T23:37:17.722Z,14.57
2022-11-28T23:39:21.986Z,13.20
2022-11-28T23:41:24.922Z,14.15
2022-11-28T23:43:26.622Z,13.93
2022-11-28T23:45:28.383Z,15.10
2022-11-28T23:47:30.125Z,14.70
2022-11-28T23:49:31.820Z,14.53
2022-11-28T23:51:33.819Z,15.50
2022-11-28T23:53:36.497Z,14.02
2022-11-28T23:57:39.776Z,14.48
2022-11-28T23:59:41.495Z,15.02
